Terminal Aerodrome Forecast
Issued by NWS

Home | Current Version | Previous Version | Text Only | Print | Product List | Glossary Off
Versions: 1 2 3 4 5 6 7 8 9 10 11 12 13 14 15 16 17 18 19 20 21 22

302
FTUS43 KMPX 181538 AAB
TAFRNH
TAF AMD
KRNH 181538Z 1816/1912 33011KT P6SM BKN009
     FM181800 32015G22KT P6SM SCT250
     FM190200 31010G17KT P6SM SKC
     FM190900 29007KT P6SM SKC=

USA.gov is the U.S. government's official web portal to all federal, state and local government web resources and services.